Time;durP1;ratioP1;P1;durP2;ratioP2;P2;SDS_P1;SDS_P2;PMS_P1;PMS_P2;Temp;Humidity;BMP_temperature;BMP_pressure;BME280_temperature;BME280_humidity;BME280_pressure;Samples;Min_cycle;Max_cycle;Signal;HPM_P1;HPM_P2
2022/09/09 00:00:24;;;;;;;6.47;1.55;;;;;;;;;;4769294;30;20031;-66
2022/09/09 00:02:55;;;;;;;5.70;1.48;;;;;;;;;;4768716;30;20389;-66
2022/09/09 00:05:29;;;;;;;5.18;1.30;;;;;;;;;;4778996;29;20031;-66
2022/09/09 00:07:59;;;;;;;5.47;1.20;;;;;;;;;;4787028;29;20061;-65
2022/09/09 00:10:43;;;;;;;5.15;1.30;;;;;;;;;;4786728;29;20034;-66
2022/09/09 00:13:29;;;;;;;7.65;1.48;;;;;;;;;;4786952;30;20056;-66
2022/09/09 00:16:01;;;;;;;4.38;1.00;;;;;;;;;;4787214;30;20031;-66
2022/09/09 00:18:33;;;;;;;5.57;1.38;;;;;;;;;;4786428;30;20037;-66
2022/09/09 00:21:07;;;;;;;4.10;1.13;;;;;;;;;;4786854;29;20053;-66
2022/09/09 00:23:36;;;;;;;6.78;1.45;;;;;;;;;;4787065;30;20038;-66
2022/09/09 00:26:03;;;;;;;8.50;1.30;;;;;;;;;;4786785;30;20417;-66
2022/09/09 00:28:32;;;;;;;3.08;0.90;;;;;;;;;;4787604;29;20033;-66
2022/09/09 00:31:08;;;;;;;3.60;1.17;;;;;;;;;;4789815;29;20035;-66
2022/09/09 00:33:35;;;;;;;1.95;0.80;;;;;;;;;;4790174;30;20378;-67
2022/09/09 00:36:02;;;;;;;4.22;1.20;;;;;;;;;;4790324;30;20042;-66
2022/09/09 00:38:34;;;;;;;6.93;1.20;;;;;;;;;;4789961;29;20515;-66
2022/09/09 00:41:12;;;;;;;4.30;1.20;;;;;;;;;;4790433;30;20043;-66
2022/09/09 00:43:40;;;;;;;8.30;1.30;;;;;;;;;;4789917;29;20420;-66
2022/09/09 00:46:19;;;;;;;5.60;1.30;;;;;;;;;;4789835;29;20031;-66
2022/09/09 00:48:51;;;;;;;4.70;1.42;;;;;;;;;;4790160;29;20039;-66
2022/09/09 00:51:30;;;;;;;1.85;1.00;;;;;;;;;;4790143;29;20031;-66
2022/09/09 00:54:06;;;;;;;6.07;1.15;;;;;;;;;;4789908;30;20046;-66
2022/09/09 00:56:42;;;;;;;4.60;1.40;;;;;;;;;;4789826;30;20053;-67
2022/09/09 00:59:15;;;;;;;3.85;1.23;;;;;;;;;;4789838;30;20047;-66
2022/09/09 01:01:41;;;;;;;4.80;1.23;;;;;;;;;;4789782;29;20031;-66
2022/09/09 01:04:16;;;;;;;3.00;1.30;;;;;;;;;;4789749;30;20039;-66
2022/09/09 01:06:44;;;;;;;3.92;1.20;;;;;;;;;;4807748;29;20026;-66
2022/09/09 01:09:16;;;;;;;4.65;1.13;;;;;;;;;;4807792;29;20038;-66
2022/09/09 01:12:01;;;;;;;8.63;1.00;;;;;;;;;;4807707;29;20053;-67
2022/09/09 01:14:33;;;;;;;4.45;1.10;;;;;;;;;;4806020;29;20047;-66
2022/09/09 01:17:02;;;;;;;4.28;1.25;;;;;;;;;;4807758;29;20374;-66
2022/09/09 01:19:39;;;;;;;6.43;1.10;;;;;;;;;;4807811;29;20081;-66
2022/09/09 01:22:20;;;;;;;2.85;1.20;;;;;;;;;;4806809;29;20038;-66
2022/09/09 01:25:05;;;;;;;9.00;1.10;;;;;;;;;;4807519;29;20038;-66
2022/09/09 01:27:33;;;;;;;4.72;1.10;;;;;;;;;;4807149;29;20031;-66
2022/09/09 01:29:59;;;;;;;6.78;1.20;;;;;;;;;;4807238;29;20039;-66
2022/09/09 01:32:42;;;;;;;4.65;1.30;;;;;;;;;;4807067;29;20035;-66
2022/09/09 01:35:30;;;;;;;2.75;0.95;;;;;;;;;;4807326;29;20432;-66
2022/09/09 01:37:56;;;;;;;6.38;1.38;;;;;;;;;;4807226;29;20309;-66
2022/09/09 01:40:23;;;;;;;3.72;1.30;;;;;;;;;;4806916;29;20045;-67
2022/09/09 01:42:49;;;;;;;3.28;1.05;;;;;;;;;;4807129;29;20083;-66
2022/09/09 01:45:15;;;;;;;7.13;1.38;;;;;;;;;;4806664;29;20031;-66
2022/09/09 01:47:42;;;;;;;7.18;0.98;;;;;;;;;;4806630;29;20034;-66
2022/09/09 01:50:11;;;;;;;5.72;1.02;;;;;;;;;;4807086;29;20408;-66
2022/09/09 01:52:37;;;;;;;6.15;1.30;;;;;;;;;;4807017;29;20050;-66
2022/09/09 01:55:04;;;;;;;10.05;1.20;;;;;;;;;;4806843;29;20026;-66
2022/09/09 01:57:40;;;;;;;3.10;1.20;;;;;;;;;;4806961;29;20039;-67
2022/09/09 02:00:09;;;;;;;7.85;1.42;;;;;;;;;;4806311;29;20037;-66
2022/09/09 02:02:43;;;;;;;6.53;1.20;;;;;;;;;;4806925;29;20520;-66
2022/09/09 02:05:12;;;;;;;7.13;1.30;;;;;;;;;;4798268;29;20046;-66
2022/09/09 02:08:02;;;;;;;4.55;1.10;;;;;;;;;;4788780;30;20027;-66
2022/09/09 02:10:33;;;;;;;1.77;0.88;;;;;;;;;;4787913;30;20047;-66
2022/09/09 02:13:10;;;;;;;4.75;1.23;;;;;;;;;;4788281;29;20043;-66
2022/09/09 02:15:42;;;;;;;4.53;1.30;;;;;;;;;;4788508;29;20027;-66
2022/09/09 02:18:11;;;;;;;8.50;1.20;;;;;;;;;;4787433;30;20046;-66
2022/09/09 02:20:38;;;;;;;8.20;1.65;;;;;;;;;;4788582;30;20500;-66
2022/09/09 02:23:05;;;;;;;4.90;1.20;;;;;;;;;;4788692;30;20036;-66
2022/09/09 02:25:34;;;;;;;5.57;1.15;;;;;;;;;;4788302;30;20023;-66
2022/09/09 02:28:01;;;;;;;4.65;1.15;;;;;;;;;;4788007;30;20516;-66
2022/09/09 02:30:29;;;;;;;6.53;1.48;;;;;;;;;;4788598;29;20043;-66
2022/09/09 02:32:57;;;;;;;5.00;1.30;;;;;;;;;;4788165;30;20035;-66
2022/09/09 02:35:24;;;;;;;6.57;1.00;;;;;;;;;;4788198;29;20039;-66
2022/09/09 02:37:51;;;;;;;6.00;1.40;;;;;;;;;;4788138;30;20042;-65
2022/09/09 02:40:18;;;;;;;2.47;1.00;;;;;;;;;;4788213;30;20042;-66
2022/09/09 02:42:45;;;;;;;3.17;1.05;;;;;;;;;;4788048;29;20512;-66
2022/09/09 02:45:13;;;;;;;5.40;1.42;;;;;;;;;;4788057;30;20481;-66
2022/09/09 02:47:57;;;;;;;7.25;1.42;;;;;;;;;;4787914;30;20041;-66
2022/09/09 02:50:27;;;;;;;3.75;1.10;;;;;;;;;;4787698;29;20405;-66
2022/09/09 02:52:53;;;;;;;4.55;0.90;;;;;;;;;;4787610;30;20413;-66
2022/09/09 02:55:39;;;;;;;3.60;1.17;;;;;;;;;;4787901;29;20031;-66
2022/09/09 02:58:07;;;;;;;7.20;1.42;;;;;;;;;;4787599;30;20042;-66
2022/09/09 03:00:35;;;;;;;6.43;1.42;;;;;;;;;;4787829;30;20030;-66
2022/09/09 03:03:03;;;;;;;5.93;1.20;;;;;;;;;;4788108;29;20027;-66
2022/09/09 03:05:30;;;;;;;2.05;1.10;;;;;;;;;;4787902;29;20400;-66
2022/09/09 03:07:56;;;;;;;3.58;1.23;;;;;;;;;;4787534;30;20027;-66
2022/09/09 03:10:23;;;;;;;7.50;1.10;;;;;;;;;;4787536;30;20038;-66
2022/09/09 03:12:50;;;;;;;3.00;0.90;;;;;;;;;;4787565;29;20043;-66
2022/09/09 03:15:16;;;;;;;2.97;1.17;;;;;;;;;;4787605;29;20405;-67
2022/09/09 03:17:43;;;;;;;4.18;1.15;;;;;;;;;;4787674;29;20052;-66
2022/09/09 03:20:09;;;;;;;3.63;1.10;;;;;;;;;;4787509;30;20451;-66
2022/09/09 03:22:36;;;;;;;5.93;1.23;;;;;;;;;;4787565;30;20034;-67
2022/09/09 03:25:05;;;;;;;5.00;1.33;;;;;;;;;;4787143;30;20033;-66
2022/09/09 03:27:32;;;;;;;8.73;1.20;;;;;;;;;;4787229;30;20035;-66
2022/09/09 03:29:58;;;;;;;6.60;1.33;;;;;;;;;;4787495;30;20034;-66
2022/09/09 03:32:28;;;;;;;4.57;1.40;;;;;;;;;;4787268;30;20031;-66
2022/09/09 03:34:54;;;;;;;5.55;1.10;;;;;;;;;;4787387;30;20031;-66
2022/09/09 03:37:21;;;;;;;5.43;1.02;;;;;;;;;;4787110;30;20416;-66
2022/09/09 03:39:47;;;;;;;5.18;1.10;;;;;;;;;;4786815;30;20455;-66
2022/09/09 03:42:14;;;;;;;2.85;1.17;;;;;;;;;;4787378;30;20023;-65
2022/09/09 03:44:41;;;;;;;4.90;1.10;;;;;;;;;;4787415;30;20043;-66
2022/09/09 03:47:08;;;;;;;5.70;1.30;;;;;;;;;;4787378;29;20037;-66
2022/09/09 03:49:35;;;;;;;5.10;1.30;;;;;;;;;;4786761;30;20045;-66
2022/09/09 03:52:01;;;;;;;7.63;1.40;;;;;;;;;;4787054;30;20027;-66
2022/09/09 03:54:27;;;;;;;4.40;1.05;;;;;;;;;;4786532;30;20035;-66
2022/09/09 03:56:54;;;;;;;4.57;1.35;;;;;;;;;;4787054;30;20037;-66
2022/09/09 03:59:21;;;;;;;3.47;1.10;;;;;;;;;;4787210;30;20034;-66
2022/09/09 04:01:47;;;;;;;6.70;1.08;;;;;;;;;;4786892;29;20397;-66
2022/09/09 04:04:13;;;;;;;7.32;1.17;;;;;;;;;;4786848;30;20034;-66
2022/09/09 04:06:40;;;;;;;2.55;1.20;;;;;;;;;;4786824;29;20620;-66
2022/09/09 04:09:06;;;;;;;3.63;1.15;;;;;;;;;;4786457;30;20098;-66
2022/09/09 04:11:33;;;;;;;2.83;1.10;;;;;;;;;;4786579;30;20059;-66
2022/09/09 04:13:59;;;;;;;3.78;1.15;;;;;;;;;;4785786;30;20506;-66
2022/09/09 04:16:26;;;;;;;3.17;1.30;;;;;;;;;;4786884;30;20042;-66
2022/09/09 04:18:53;;;;;;;4.78;1.40;;;;;;;;;;4785902;29;20035;-66
2022/09/09 04:21:19;;;;;;;6.35;1.40;;;;;;;;;;4786881;30;20024;-66
2022/09/09 04:23:45;;;;;;;5.25;1.08;;;;;;;;;;4786755;30;20036;-66
2022/09/09 04:26:12;;;;;;;9.15;1.55;;;;;;;;;;4786692;29;20401;-66
2022/09/09 04:28:38;;;;;;;4.00;1.30;;;;;;;;;;4786940;30;20046;-66
2022/09/09 04:31:09;;;;;;;2.60;1.50;;;;;;;;;;4786689;30;20520;-66
2022/09/09 04:33:35;;;;;;;6.47;1.48;;;;;;;;;;4786631;29;20031;-66
2022/09/09 04:36:01;;;;;;;5.28;1.25;;;;;;;;;;4786837;30;20039;-66
2022/09/09 04:38:28;;;;;;;5.38;1.58;;;;;;;;;;4786479;30;20031;-66
2022/09/09 04:40:55;;;;;;;3.50;1.20;;;;;;;;;;4786807;30;20020;-66
2022/09/09 04:43:22;;;;;;;9.25;1.73;;;;;;;;;;4786858;30;20031;-66
2022/09/09 04:45:50;;;;;;;8.68;1.55;;;;;;;;;;4786666;30;20486;-66
2022/09/09 04:48:17;;;;;;;3.65;1.30;;;;;;;;;;4786545;30;20046;-66
2022/09/09 04:50:43;;;;;;;5.40;1.70;;;;;;;;;;4786691;30;20042;-66
2022/09/09 04:53:10;;;;;;;5.70;1.75;;;;;;;;;;4786175;29;20043;-66
2022/09/09 04:55:36;;;;;;;4.90;1.35;;;;;;;;;;4786779;30;20027;-64
2022/09/09 04:58:06;;;;;;;4.93;1.30;;;;;;;;;;4786573;30;20042;-66
2022/09/09 05:00:33;;;;;;;6.70;1.90;;;;;;;;;;4785281;29;20405;-66
2022/09/09 05:03:03;;;;;;;5.55;1.63;;;;;;;;;;4786400;30;20034;-64
2022/09/09 05:05:30;;;;;;;4.30;1.30;;;;;;;;;;4786296;29;20497;-66
2022/09/09 05:08:02;;;;;;;3.88;1.58;;;;;;;;;;4786042;30;20028;-66
2022/09/09 05:10:28;;;;;;;4.95;1.52;;;;;;;;;;4786521;30;20038;-66
2022/09/09 05:12:55;;;;;;;3.40;1.48;;;;;;;;;;4786308;29;20039;-66
2022/09/09 05:15:22;;;;;;;6.70;1.55;;;;;;;;;;4788689;29;20031;-66
2022/09/09 05:17:48;;;;;;;7.70;1.50;;;;;;;;;;4789528;30;20043;-66
2022/09/09 05:20:14;;;;;;;4.85;1.75;;;;;;;;;;4788369;29;20054;-66
2022/09/09 05:22:41;;;;;;;6.60;1.40;;;;;;;;;;4787962;29;20039;-66
2022/09/09 05:25:07;;;;;;;3.85;1.60;;;;;;;;;;4788339;30;20036;-66
2022/09/09 05:27:37;;;;;;;4.97;1.98;;;;;;;;;;4789204;29;20031;-66
2022/09/09 05:30:04;;;;;;;2.88;1.40;;;;;;;;;;4789590;30;20038;-66
2022/09/09 05:32:34;;;;;;;5.88;2.00;;;;;;;;;;4789506;30;20035;-66
2022/09/09 05:35:01;;;;;;;8.10;1.60;;;;;;;;;;4789312;29;20027;-66
2022/09/09 05:37:27;;;;;;;5.25;1.27;;;;;;;;;;4788862;29;20486;-66
2022/09/09 05:39:54;;;;;;;6.50;1.70;;;;;;;;;;4789277;30;20099;-66
2022/09/09 05:42:21;;;;;;;4.43;1.35;;;;;;;;;;4789101;30;20036;-66
2022/09/09 05:44:47;;;;;;;6.28;1.63;;;;;;;;;;4789169;29;20024;-66
2022/09/09 05:47:15;;;;;;;3.78;1.60;;;;;;;;;;4789149;30;20042;-66
2022/09/09 05:49:41;;;;;;;6.47;2.05;;;;;;;;;;4788867;30;20020;-66
2022/09/09 05:52:07;;;;;;;4.28;1.85;;;;;;;;;;4788667;30;20028;-66
2022/09/09 05:54:34;;;;;;;7.43;1.60;;;;;;;;;;4788494;29;20121;-66
2022/09/09 05:57:00;;;;;;;8.40;2.10;;;;;;;;;;4788913;29;20400;-66
2022/09/09 05:59:26;;;;;;;11.45;2.10;;;;;;;;;;4788823;30;20032;-66
2022/09/09 06:01:53;;;;;;;4.50;1.85;;;;;;;;;;4788696;30;20443;-66
2022/09/09 06:04:22;;;;;;;4.93;1.77;;;;;;;;;;4788434;29;20033;-66
2022/09/09 06:06:48;;;;;;;10.38;2.28;;;;;;;;;;4788988;29;20032;-66
2022/09/09 06:09:15;;;;;;;5.85;2.00;;;;;;;;;;4788310;30;20035;-66
2022/09/09 06:11:42;;;;;;;11.85;2.45;;;;;;;;;;4788867;29;20074;-66
2022/09/09 06:14:09;;;;;;;5.05;1.70;;;;;;;;;;4786960;30;20531;-66
2022/09/09 06:16:37;;;;;;;7.40;2.10;;;;;;;;;;4788323;30;20054;-66
2022/09/09 06:19:03;;;;;;;8.00;2.15;;;;;;;;;;4787638;29;20023;-65
2022/09/09 06:21:30;;;;;;;6.65;2.17;;;;;;;;;;4787340;30;20035;-66
2022/09/09 06:23:56;;;;;;;8.70;1.90;;;;;;;;;;4789512;29;20023;-66
2022/09/09 06:26:27;;;;;;;6.93;2.08;;;;;;;;;;4796767;29;20069;-66
2022/09/09 06:28:54;;;;;;;7.03;2.20;;;;;;;;;;4788060;29;20408;-66
2022/09/09 06:31:22;;;;;;;8.00;2.28;;;;;;;;;;4802094;29;20068;-66
2022/09/09 06:33:49;;;;;;;3.72;2.08;;;;;;;;;;4805561;29;20046;-66
2022/09/09 06:36:17;;;;;;;6.78;1.90;;;;;;;;;;4802019;29;20035;-66
2022/09/09 06:38:44;;;;;;;6.82;1.58;;;;;;;;;;4777591;30;20035;-66
2022/09/09 06:41:12;;;;;;;7.88;2.33;;;;;;;;;;4794231;29;20031;-66
2022/09/09 06:43:38;;;;;;;6.05;1.95;;;;;;;;;;4798436;29;20039;-67
2022/09/09 06:46:10;;;;;;;3.95;1.77;;;;;;;;;;4787664;30;20022;-66
2022/09/09 06:48:36;;;;;;;5.28;2.03;;;;;;;;;;4787492;30;20035;-66
2022/09/09 06:51:06;;;;;;;6.78;2.28;;;;;;;;;;4787480;30;20501;-65
2022/09/09 06:53:33;;;;;;;5.03;1.90;;;;;;;;;;4787425;29;20512;-66
2022/09/09 06:56:01;;;;;;;3.13;2.05;;;;;;;;;;4787685;29;20034;-66
2022/09/09 06:58:28;;;;;;;9.43;2.08;;;;;;;;;;4787166;30;20192;-66
2022/09/09 07:01:05;;;;;;;5.25;1.77;;;;;;;;;;4795254;29;20045;-66
2022/09/09 07:03:31;;;;;;;3.38;1.95;;;;;;;;;;4790679;29;20036;-64
2022/09/09 07:05:59;;;;;;;7.03;2.17;;;;;;;;;;4785047;30;20039;-64
2022/09/09 07:08:25;;;;;;;7.35;2.28;;;;;;;;;;4783478;29;20031;-66
2022/09/09 07:10:55;;;;;;;4.15;1.63;;;;;;;;;;4789992;29;20050;-65
2022/09/09 07:13:25;;;;;;;4.55;1.90;;;;;;;;;;4787210;30;20078;-64
2022/09/09 07:15:52;;;;;;;7.33;1.93;;;;;;;;;;4800662;29;20501;-65
2022/09/09 07:18:19;;;;;;;7.32;2.03;;;;;;;;;;4804780;29;20031;-64
2022/09/09 07:20:55;;;;;;;5.75;2.22;;;;;;;;;;4801319;29;20046;-66
2022/09/09 07:23:22;;;;;;;8.35;2.28;;;;;;;;;;4784846;29;20042;-64
2022/09/09 07:25:48;;;;;;;6.63;2.15;;;;;;;;;;4785313;30;20035;-65
2022/09/09 07:28:15;;;;;;;6.22;2.30;;;;;;;;;;4782504;29;20034;-66
2022/09/09 07:30:42;;;;;;;4.15;1.85;;;;;;;;;;4797713;29;20023;-65
2022/09/09 07:33:12;;;;;;;4.07;1.85;;;;;;;;;;4803198;29;20098;-66
2022/09/09 07:35:39;;;;;;;4.78;1.80;;;;;;;;;;4786229;30;20023;-65
2022/09/09 07:38:06;;;;;;;7.15;2.30;;;;;;;;;;4788974;29;20027;-66
2022/09/09 07:40:33;;;;;;;5.72;1.90;;;;;;;;;;4799563;29;20027;-64
2022/09/09 07:43:00;;;;;;;2.83;2.05;;;;;;;;;;4788718;29;20603;-66
2022/09/09 07:45:31;;;;;;;4.78;1.73;;;;;;;;;;4791409;29;20032;-66
2022/09/09 07:47:57;;;;;;;8.02;2.65;;;;;;;;;;4793760;29;20031;-65
2022/09/09 07:50:24;;;;;;;5.80;2.08;;;;;;;;;;4802722;29;20929;-66
2022/09/09 07:52:54;;;;;;;5.57;1.90;;;;;;;;;;4803533;29;20489;-66
2022/09/09 07:55:27;;;;;;;4.03;1.60;;;;;;;;;;4803784;29;20052;-66
2022/09/09 07:57:54;;;;;;;3.17;1.70;;;;;;;;;;4803480;29;20446;-65
2022/09/09 08:00:21;;;;;;;2.47;1.60;;;;;;;;;;4793388;29;20035;-66
2022/09/09 08:02:48;;;;;;;3.40;1.25;;;;;;;;;;4785898;29;20034;-66
2022/09/09 08:05:16;;;;;;;3.08;1.40;;;;;;;;;;4784640;30;20039;-66
2022/09/09 08:07:44;;;;;;;4.30;1.88;;;;;;;;;;4784940;30;20035;-66
2022/09/09 08:10:10;;;;;;;4.90;1.80;;;;;;;;;;4785639;29;20039;-67
2022/09/09 08:12:36;;;;;;;5.47;1.52;;;;;;;;;;4783713;29;20057;-67
2022/09/09 08:15:03;;;;;;;3.42;1.48;;;;;;;;;;4785331;29;20418;-67
2022/09/09 08:17:29;;;;;;;4.88;1.33;;;;;;;;;;4785601;29;20371;-67
2022/09/09 08:19:56;;;;;;;2.53;1.10;;;;;;;;;;4786263;30;20035;-65
2022/09/09 08:22:24;;;;;;;4.22;1.20;;;;;;;;;;4790224;29;20049;-66
2022/09/09 08:24:50;;;;;;;2.65;1.25;;;;;;;;;;4803914;29;20481;-66
2022/09/09 08:27:17;;;;;;;3.97;1.50;;;;;;;;;;4804564;29;20023;-65
2022/09/09 08:29:43;;;;;;;1.48;0.90;;;;;;;;;;4803609;29;20038;-66
2022/09/09 08:32:10;;;;;;;2.30;1.10;;;;;;;;;;4803963;29;20033;-67
2022/09/09 08:34:36;;;;;;;1.90;1.10;;;;;;;;;;4798082;29;20044;-66
2022/09/09 08:37:02;;;;;;;3.92;1.30;;;;;;;;;;4781899;29;20031;-66
2022/09/09 08:39:29;;;;;;;1.90;0.90;;;;;;;;;;4785037;30;20049;-66
2022/09/09 08:42:09;;;;;;;2.40;0.80;;;;;;;;;;4785100;30;20489;-66
2022/09/09 08:44:42;;;;;;;5.63;0.93;;;;;;;;;;4784067;30;20043;-66
2022/09/09 08:47:09;;;;;;;0.95;0.70;;;;;;;;;;4785150;30;20027;-66
2022/09/09 08:49:55;;;;;;;0.80;0.70;;;;;;;;;;4786314;29;20038;-66
2022/09/09 08:52:27;;;;;;;1.02;0.70;;;;;;;;;;4788192;30;20037;-66
2022/09/09 08:54:56;;;;;;;0.82;0.50;;;;;;;;;;4788509;30;20057;-66
2022/09/09 08:57:26;;;;;;;1.38;0.60;;;;;;;;;;4788432;30;20024;-66
2022/09/09 08:59:55;;;;;;;1.10;0.50;;;;;;;;;;4788291;30;20035;-66
2022/09/09 09:02:26;;;;;;;0.95;0.52;;;;;;;;;;4787891;29;20043;-66
2022/09/09 09:04:59;;;;;;;2.03;0.60;;;;;;;;;;4786772;29;20027;-66
2022/09/09 09:07:36;;;;;;;2.20;0.50;;;;;;;;;;4788200;30;20497;-66
2022/09/09 09:10:10;;;;;;;1.77;0.57;;;;;;;;;;4788619;29;20038;-66
2022/09/09 09:12:40;;;;;;;2.15;0.45;;;;;;;;;;4787783;30;20062;-66
2022/09/09 09:15:26;;;;;;;1.05;0.52;;;;;;;;;;4787694;30;20039;-66
2022/09/09 09:17:53;;;;;;;2.13;0.70;;;;;;;;;;4788351;29;20035;-66
2022/09/09 09:20:23;;;;;;;1.00;0.47;;;;;;;;;;4786793;29;20031;-66
2022/09/09 09:22:51;;;;;;;1.07;0.47;;;;;;;;;;4788355;30;20031;-66
2022/09/09 09:25:22;;;;;;;1.42;0.40;;;;;;;;;;4788161;29;20794;-66
2022/09/09 09:27:48;;;;;;;;;;;;;;;;;;4788234;30;20035;-66
2022/09/09 09:30:19;;;;;;;1.50;0.70;;;;;;;;;;4787892;30;20417;-66
2022/09/09 09:32:54;;;;;;;2.92;0.60;;;;;;;;;;4773334;30;20035;-67
2022/09/09 09:35:20;;;;;;;1.30;0.47;;;;;;;;;;4769995;30;20506;-66
2022/09/09 09:37:48;;;;;;;1.45;0.70;;;;;;;;;;4786462;29;20023;-66
2022/09/09 09:40:15;;;;;;;4.15;0.70;;;;;;;;;;4805712;29;20030;-66
2022/09/09 09:43:11;;;;;;;1.15;0.60;;;;;;;;;;4805280;29;20031;-66
2022/09/09 09:45:45;;;;;;;1.33;0.40;;;;;;;;;;4795213;29;20045;-66
2022/09/09 09:48:14;;;;;;;1.42;0.50;;;;;;;;;;4786974;30;20023;-66
2022/09/09 09:51:07;;;;;;;1.33;0.50;;;;;;;;;;4787588;30;20038;-66
2022/09/09 09:53:34;;;;;;;2.65;0.55;;;;;;;;;;4793611;29;20054;-66
2022/09/09 09:56:11;;;;;;;3.35;0.68;;;;;;;;;;4805648;29;20512;-66
2022/09/09 09:58:46;;;;;;;1.48;0.50;;;;;;;;;;4805273;29;20045;-66
2022/09/09 10:01:29;;;;;;;1.75;0.60;;;;;;;;;;4805246;29;20037;-66
2022/09/09 10:04:01;;;;;;;1.42;0.63;;;;;;;;;;4792785;29;20019;-66
2022/09/09 10:06:34;;;;;;;4.70;0.70;;;;;;;;;;4797036;29;20045;-66
2022/09/09 10:09:02;;;;;;;2.03;0.70;;;;;;;;;;4804394;29;20038;-66
2022/09/09 10:11:34;;;;;;;2.45;0.50;;;;;;;;;;4804429;29;20440;-66
2022/09/09 10:14:06;;;;;;;0.88;0.52;;;;;;;;;;4798437;29;20044;-66
2022/09/09 10:16:42;;;;;;;7.10;0.90;;;;;;;;;;4786831;29;20035;-66
2022/09/09 10:19:14;;;;;;;1.95;0.60;;;;;;;;;;4787805;29;20038;-66
2022/09/09 10:21:47;;;;;;;1.83;0.60;;;;;;;;;;4787949;29;20037;-66
2022/09/09 10:24:18;;;;;;;1.48;0.80;;;;;;;;;;4804959;29;20058;-66
2022/09/09 10:26:47;;;;;;;2.28;1.00;;;;;;;;;;4805664;29;20497;-66
2022/09/09 10:29:29;;;;;;;1.55;0.60;;;;;;;;;;4806077;29;20090;-66
2022/09/09 10:32:14;;;;;;;2.85;0.95;;;;;;;;;;4806245;29;20029;-66
2022/09/09 10:35:00;;;;;;;1.15;0.50;;;;;;;;;;4805248;29;20039;-66
2022/09/09 10:37:42;;;;;;;20.25;1.10;;;;;;;;;;4795971;29;20509;-66
2022/09/09 10:40:21;;;;;;;1.88;0.90;;;;;;;;;;4787188;30;20039;-66
2022/09/09 10:42:48;;;;;;;1.23;0.50;;;;;;;;;;4787498;30;20042;-66
2022/09/09 10:45:34;;;;;;;4.97;0.60;;;;;;;;;;4787731;30;20038;-66
2022/09/09 10:48:03;;;;;;;1.83;0.60;;;;;;;;;;4787635;29;20030;-66
2022/09/09 10:50:49;;;;;;;2.42;0.70;;;;;;;;;;4787868;30;20039;-66
2022/09/09 10:53:18;;;;;;;4.10;0.55;;;;;;;;;;4787721;29;20047;-66
2022/09/09 10:55:49;;;;;;;2.10;1.05;;;;;;;;;;4787400;29;20032;-66
2022/09/09 10:58:20;;;;;;;3.95;0.40;;;;;;;;;;4787660;29;20037;-66
2022/09/09 11:00:49;;;;;;;1.67;0.80;;;;;;;;;;4787689;30;20035;-66
2022/09/09 11:03:23;;;;;;;1.83;1.08;;;;;;;;;;4787233;30;20023;-66
2022/09/09 11:05:52;;;;;;;2.83;0.52;;;;;;;;;;4787279;29;20039;-66
2022/09/09 11:08:23;;;;;;;2.95;0.60;;;;;;;;;;4787054;30;20053;-66
2022/09/09 11:10:55;;;;;;;0.98;0.43;;;;;;;;;;4787131;30;20051;-66
2022/09/09 11:13:25;;;;;;;2.42;0.73;;;;;;;;;;4786649;29;20043;-66
2022/09/09 11:16:12;;;;;;;1.80;0.63;;;;;;;;;;4787113;30;20045;-66
2022/09/09 11:18:41;;;;;;;3.10;0.80;;;;;;;;;;4787148;30;20049;-66
2022/09/09 11:21:10;;;;;;;4.75;0.73;;;;;;;;;;4787269;30;20043;-66
2022/09/09 11:23:41;;;;;;;3.05;0.60;;;;;;;;;;4798942;29;20043;-66
2022/09/09 11:26:08;;;;;;;3.03;0.80;;;;;;;;;;4804826;29;20026;-66
2022/09/09 11:28:44;;;;;;;2.67;0.73;;;;;;;;;;4805390;29;20034;-66
2022/09/09 11:31:13;;;;;;;6.40;0.82;;;;;;;;;;4804671;29;20039;-66
2022/09/09 11:34:01;;;;;;;2.33;0.88;;;;;;;;;;4795909;29;20612;-66
2022/09/09 11:36:37;;;;;;;0.95;0.52;;;;;;;;;;4787506;29;20127;-64
2022/09/09 11:39:23;;;;;;;4.45;0.70;;;;;;;;;;4785497;30;20446;-65
2022/09/09 11:41:49;;;;;;;5.30;0.93;;;;;;;;;;4778224;30;20041;-65
2022/09/09 11:44:22;;;;;;;1.13;0.60;;;;;;;;;;4786238;30;20031;-65
2022/09/09 11:46:51;;;;;;;1.35;0.60;;;;;;;;;;4782465;30;20193;-64
2022/09/09 11:49:45;;;;;;;1.42;0.60;;;;;;;;;;4786230;30;20367;-66
2022/09/09 11:52:26;;;;;;;4.97;0.63;;;;;;;;;;4784923;29;20047;-66
2022/09/09 11:54:56;;;;;;;7.20;0.73;;;;;;;;;;4784770;30;20404;-66
2022/09/09 11:57:38;;;;;;;2.85;0.90;;;;;;;;;;4786287;30;20396;-66
2022/09/09 12:00:05;;;;;;;4.65;0.80;;;;;;;;;;4786397;29;20035;-65
2022/09/09 12:02:31;;;;;;;2.92;0.57;;;;;;;;;;4786455;29;20027;-65
2022/09/09 12:05:19;;;;;;;10.43;0.90;;;;;;;;;;4785083;29;20079;-65
2022/09/09 12:07:58;;;;;;;4.20;0.88;;;;;;;;;;4786051;29;20035;-65
2022/09/09 12:10:27;;;;;;;4.15;0.70;;;;;;;;;;4784786;29;20084;-66
2022/09/09 12:12:54;;;;;;;3.75;0.57;;;;;;;;;;4786122;29;20514;-65
2022/09/09 12:15:22;;;;;;;2.83;0.60;;;;;;;;;;4786303;30;20041;-65
2022/09/09 12:17:53;;;;;;;2.47;0.50;;;;;;;;;;4786550;30;20039;-65
2022/09/09 12:20:22;;;;;;;3.53;0.75;;;;;;;;;;4786111;30;20035;-65
2022/09/09 12:23:12;;;;;;;3.45;0.93;;;;;;;;;;4785490;29;20032;-66
2022/09/09 12:25:38;;;;;;;3.10;0.60;;;;;;;;;;4785985;29;20037;-65
2022/09/09 12:28:09;;;;;;;8.90;1.00;;;;;;;;;;4789609;30;20515;-65
2022/09/09 12:30:49;;;;;;;3.55;0.80;;;;;;;;;;4788604;30;20043;-65
2022/09/09 12:33:18;;;;;;;1.08;0.52;;;;;;;;;;4792968;29;20055;-65
2022/09/09 12:35:47;;;;;;;1.30;0.50;;;;;;;;;;4788700;29;20035;-65
2022/09/09 12:38:18;;;;;;;1.60;0.60;;;;;;;;;;4788193;29;20042;-65
2022/09/09 12:40:54;;;;;;;4.93;0.93;;;;;;;;;;4793789;29;20049;-66
2022/09/09 12:43:21;;;;;;;2.35;0.93;;;;;;;;;;4802065;29;20035;-65
2022/09/09 12:45:50;;;;;;;1.23;0.70;;;;;;;;;;4795432;29;20046;-65
2022/09/09 12:48:19;;;;;;;0.88;0.45;;;;;;;;;;4797193;29;20408;-65
2022/09/09 12:50:46;;;;;;;4.03;0.80;;;;;;;;;;4787735;30;20039;-66
2022/09/09 12:53:20;;;;;;;3.35;0.80;;;;;;;;;;4788931;30;20043;-65
2022/09/09 12:56:00;;;;;;;1.98;0.50;;;;;;;;;;4789425;29;20061;-64
2022/09/09 12:58:28;;;;;;;2.07;0.40;;;;;;;;;;4789463;30;20575;-64
2022/09/09 13:00:56;;;;;;;2.47;0.55;;;;;;;;;;4788968;29;20036;-65
2022/09/09 13:03:23;;;;;;;1.38;0.45;;;;;;;;;;4788956;29;20386;-64
2022/09/09 13:05:51;;;;;;;2.17;0.77;;;;;;;;;;4788482;29;20039;-65
2022/09/09 13:08:21;;;;;;;4.35;0.90;;;;;;;;;;4785633;30;20032;-65
2022/09/09 13:10:53;;;;;;;5.90;0.70;;;;;;;;;;4789318;30;20036;-65
2022/09/09 13:13:24;;;;;;;10.18;0.82;;;;;;;;;;4789156;30;20050;-65
2022/09/09 13:15:53;;;;;;;6.00;0.70;;;;;;;;;;4788830;30;20038;-65
2022/09/09 13:18:22;;;;;;;3.13;0.68;;;;;;;;;;4788368;30;20027;-64
2022/09/09 13:20:49;;;;;;;1.85;0.70;;;;;;;;;;4788325;29;20397;-65
2022/09/09 13:23:16;;;;;;;3.33;1.40;;;;;;;;;;4789773;29;20039;-65
2022/09/09 13:25:53;;;;;;;6.50;0.90;;;;;;;;;;4778368;30;20028;-65
2022/09/09 13:28:24;;;;;;;7.37;0.93;;;;;;;;;;4787414;30;20031;-65
2022/09/09 13:31:06;;;;;;;12.00;1.55;;;;;;;;;;4788922;30;20271;-65
2022/09/09 13:33:34;;;;;;;4.78;0.90;;;;;;;;;;4787881;29;20419;-65
2022/09/09 13:36:04;;;;;;;2.83;0.60;;;;;;;;;;4787788;29;20032;-65
2022/09/09 13:38:31;;;;;;;10.50;1.00;;;;;;;;;;4788780;29;20049;-65
2022/09/09 13:40:59;;;;;;;3.80;0.70;;;;;;;;;;4788759;30;20030;-65
2022/09/09 13:43:26;;;;;;;2.53;0.93;;;;;;;;;;4787631;29;20087;-65
2022/09/09 13:45:58;;;;;;;4.47;1.20;;;;;;;;;;4787229;30;20446;-66
2022/09/09 13:48:25;;;;;;;4.22;0.95;;;;;;;;;;4788175;30;20042;-65
2022/09/09 13:50:57;;;;;;;4.95;0.80;;;;;;;;;;4788572;29;20032;-65
2022/09/09 13:53:24;;;;;;;4.55;0.90;;;;;;;;;;4788414;30;20035;-65
2022/09/09 13:55:51;;;;;;;1.35;0.65;;;;;;;;;;4788002;30;20027;-65
2022/09/09 13:58:22;;;;;;;8.10;1.10;;;;;;;;;;4788828;29;20076;-65
2022/09/09 14:00:49;;;;;;;2.03;0.80;;;;;;;;;;4786171;29;20025;-65
2022/09/09 14:03:16;;;;;;;2.60;1.00;;;;;;;;;;4785203;30;20032;-65
2022/09/09 14:05:44;;;;;;;3.90;0.82;;;;;;;;;;4786047;29;20027;-65
2022/09/09 14:08:15;;;;;;;4.00;1.15;;;;;;;;;;4800366;29;20065;-65
2022/09/09 14:10:41;;;;;;;1.65;0.82;;;;;;;;;;4799911;29;20031;-65
2022/09/09 14:13:08;;;;;;;2.42;0.80;;;;;;;;;;4787728;29;20059;-65
2022/09/09 14:15:34;;;;;;;3.97;0.73;;;;;;;;;;4787984;29;20023;-66
2022/09/09 14:18:00;;;;;;;6.05;1.00;;;;;;;;;;4787974;29;20481;-64
2022/09/09 14:20:27;;;;;;;2.35;0.60;;;;;;;;;;4787857;29;20039;-65
2022/09/09 14:22:53;;;;;;;4.18;1.02;;;;;;;;;;4795829;29;20019;-66
2022/09/09 14:25:19;;;;;;;2.88;0.68;;;;;;;;;;4788569;29;20023;-65
2022/09/09 14:27:46;;;;;;;3.20;0.98;;;;;;;;;;4794659;29;20496;-65
2022/09/09 14:30:12;;;;;;;3.63;0.95;;;;;;;;;;4801279;29;20049;-65
2022/09/09 14:32:38;;;;;;;5.43;1.00;;;;;;;;;;4799956;29;20031;-65
2022/09/09 14:35:05;;;;;;;9.50;1.00;;;;;;;;;;4795999;29;20113;-64
2022/09/09 14:37:31;;;;;;;2.70;0.75;;;;;;;;;;4794183;29;20710;-65
2022/09/09 14:39:58;;;;;;;3.67;0.70;;;;;;;;;;4795510;29;20031;-65
2022/09/09 14:42:24;;;;;;;2.45;0.80;;;;;;;;;;4794699;29;20033;-66
2022/09/09 14:44:50;;;;;;;6.90;0.90;;;;;;;;;;4796585;29;20031;-66
2022/09/09 14:47:17;;;;;;;1.88;0.63;;;;;;;;;;4803163;29;20031;-65
2022/09/09 14:49:43;;;;;;;2.08;0.60;;;;;;;;;;4803033;29;20039;-66
2022/09/09 14:52:09;;;;;;;3.13;0.65;;;;;;;;;;4804366;29;20027;-65
2022/09/09 14:54:35;;;;;;;2.42;0.55;;;;;;;;;;4803771;29;20039;-66
2022/09/09 14:57:02;;;;;;;4.88;0.50;;;;;;;;;;4796498;29;20030;-66
2022/09/09 14:59:28;;;;;;;1.23;0.60;;;;;;;;;;4789323;29;20046;-64